Time;durP1;ratioP1;P1;durP2;ratioP2;P2;SDS_P1;SDS_P2;PMS_P1;PMS_P2;Temp;Humidity;BMP_temperature;BMP_pressure;BME280_temperature;BME280_humidity;BME280_pressure;Samples;Min_cycle;Max_cycle;Signal;HPM_P1;HPM_P2
2023/06/03 00:01:40;;;;;;;;;;;14.10;99.90;;;;;;5045280;28;19921;-69
2023/06/03 00:04:07;;;;;;;;;;;14.10;99.90;;;;;;5024111;28;19936;-69
2023/06/03 00:06:34;;;;;;;;;;;14.00;99.90;;;;;;5025706;28;20244;-69
2023/06/03 00:09:00;;;;;;;;;;;14.00;99.90;;;;;;5026077;28;19984;-70
2023/06/03 00:11:27;;;;;;;;;;;13.90;99.90;;;;;;5026058;28;19960;-70
2023/06/03 00:13:54;;;;;;;;;;;13.90;99.90;;;;;;5025229;28;19984;-70
2023/06/03 00:16:22;;;;;;;;;;;13.90;99.90;;;;;;5025096;28;19966;-69
2023/06/03 00:18:50;;;;;;;;;;;13.90;99.90;;;;;;5025603;28;19957;-70
2023/06/03 00:21:17;;;;;;;;;;;13.90;99.90;;;;;;5025718;28;19922;-70
2023/06/03 00:23:45;;;;;;;;;;;13.90;99.90;;;;;;5025475;28;20156;-69
2023/06/03 00:26:12;;;;;;;;;;;13.90;99.90;;;;;;5024513;28;19944;-69
2023/06/03 00:28:39;;;;;;;;;;;13.90;99.90;;;;;;5025469;28;19993;-69
2023/06/03 00:31:05;;;;;;;;;;;13.80;99.90;;;;;;5025392;28;19921;-69
2023/06/03 00:33:32;;;;;;;;;;;13.90;99.90;;;;;;5025463;28;20124;-69
2023/06/03 00:36:01;;;;;;;;;;;13.80;99.90;;;;;;5024484;28;19992;-69
2023/06/03 00:38:27;;;;;;;;;;;13.70;99.90;;;;;;5025180;28;20145;-69
2023/06/03 00:40:54;;;;;;;;;;;13.70;99.90;;;;;;5025357;28;19984;-69
2023/06/03 00:43:21;;;;;;;;;;;13.70;99.90;;;;;;5025376;28;19988;-69
2023/06/03 00:45:47;;;;;;;;;;;13.70;99.90;;;;;;5025241;28;20178;-70
2023/06/03 00:48:14;;;;;;;;;;;13.70;99.90;;;;;;5036544;28;20228;-70
2023/06/03 00:50:41;;;;;;;;;;;13.70;99.90;;;;;;5045002;28;19921;-70
2023/06/03 00:53:09;;;;;;;;;;;13.70;99.90;;;;;;5041462;28;19928;-70
2023/06/03 00:55:35;;;;;;;;;;;13.60;99.90;;;;;;5023960;28;19984;-70
2023/06/03 00:58:02;;;;;;;;;;;13.60;99.90;;;;;;5025106;28;19964;-69
2023/06/03 01:00:29;;;;;;;;;;;13.60;99.90;;;;;;5024983;28;19992;-70
2023/06/03 01:02:55;;;;;;;;;;;13.50;99.90;;;;;;5024899;28;19953;-69
2023/06/03 01:05:23;;;;;;;;;;;13.50;99.90;;;;;;5024173;28;19922;-69
2023/06/03 01:07:56;;;;;;;;;;;13.40;99.90;;;;;;5024659;28;19992;-70
2023/06/03 01:10:25;;;;;;;;;;;13.40;99.90;;;;;;5024580;28;19968;-70
2023/06/03 01:12:54;;;;;;;;;;;13.40;99.90;;;;;;5024849;28;19921;-70
2023/06/03 01:15:23;;;;;;;;;;;13.40;99.90;;;;;;5023871;28;19921;-69
2023/06/03 01:17:51;;;;;;;;;;;13.40;99.90;;;;;;5024767;28;20154;-69
2023/06/03 01:20:17;;;;;;;;;;;13.40;99.90;;;;;;5024324;28;19929;-70
2023/06/03 01:22:46;;;;;;;;;;;13.40;99.90;;;;;;5024656;28;19921;-70
2023/06/03 01:25:15;;;;;;;;;;;13.20;99.90;;;;;;5023786;28;19929;-70
2023/06/03 01:27:42;;;;;;;;;;;13.30;99.90;;;;;;5024171;28;19971;-69
2023/06/03 01:30:10;;;;;;;;;;;13.20;99.90;;;;;;5024260;28;20205;-69
2023/06/03 01:32:38;;;;;;;;;;;13.20;99.90;;;;;;5024701;28;19943;-70
2023/06/03 01:35:06;;;;;;;;;;;13.20;99.90;;;;;;5038824;28;19927;-70
2023/06/03 01:37:33;;;;;;;;;;;13.20;99.90;;;;;;5044040;28;19928;-69
2023/06/03 01:40:01;;;;;;;;;;;13.20;99.90;;;;;;5044011;28;19984;-69
2023/06/03 01:42:29;;;;;;;;;;;13.20;99.90;;;;;;5044119;28;19928;-69
2023/06/03 01:44:57;;;;;;;;;;;13.20;99.90;;;;;;5043243;28;19984;-69
2023/06/03 01:47:24;;;;;;;;;;;13.10;99.90;;;;;;5029716;28;19989;-70
2023/06/03 01:49:51;;;;;;;;;;;13.10;99.90;;;;;;5031797;28;20176;-69
2023/06/03 01:52:17;;;;;;;;;;;13.10;99.90;;;;;;5023960;28;19948;-69
2023/06/03 01:54:44;;;;;;;;;;;13.10;99.90;;;;;;5023169;28;19953;-70
2023/06/03 01:57:11;;;;;;;;;;;13.10;99.90;;;;;;5023759;28;20216;-69
2023/06/03 01:59:40;;;;;;;;;;;13.00;99.90;;;;;;5023933;28;19984;-69
2023/06/03 02:02:07;;;;;;;;;;;13.00;99.90;;;;;;5023737;28;19921;-71
2023/06/03 02:04:33;;;;;;;;;;;13.00;99.90;;;;;;5032757;28;20145;-69
2023/06/03 02:07:00;;;;;;;;;;;13.00;99.90;;;;;;5043511;28;19956;-70
2023/06/03 02:09:28;;;;;;;;;;;13.00;99.90;;;;;;5043253;28;19921;-69
2023/06/03 02:11:54;;;;;;;;;;;13.00;99.90;;;;;;5043708;28;19921;-69
2023/06/03 02:14:21;;;;;;;;;;;13.00;99.90;;;;;;5043059;28;19929;-69
2023/06/03 02:16:49;;;;;;;;;;;12.90;99.90;;;;;;5043391;28;19929;-69
2023/06/03 02:19:17;;;;;;;;;;;12.80;99.90;;;;;;5043593;28;20032;-69
2023/06/03 02:21:44;;;;;;;;;;;12.80;99.90;;;;;;5043436;28;19929;-69
2023/06/03 02:24:14;;;;;;;;;;;12.80;99.90;;;;;;5042881;28;19979;-69
2023/06/03 02:26:49;;;;;;;;;;;12.80;99.90;;;;;;5042515;28;19922;-69
2023/06/03 02:29:16;;;;;;;;;;;12.80;99.90;;;;;;5043294;28;20227;-69
2023/06/03 02:31:43;;;;;;;;;;;12.80;99.90;;;;;;5043368;28;20016;-69
2023/06/03 02:34:11;;;;;;;;;;;12.80;99.90;;;;;;5042658;28;19921;-70
2023/06/03 02:36:38;;;;;;;;;;;12.70;99.90;;;;;;5043219;28;19990;-69
2023/06/03 02:39:07;;;;;;;;;;;12.70;99.90;;;;;;5043141;28;19921;-69
2023/06/03 02:41:33;;;;;;;;;;;12.70;99.90;;;;;;5043292;28;19928;-69
2023/06/03 02:44:00;;;;;;;;;;;12.70;99.90;;;;;;5042809;28;19952;-70
2023/06/03 02:46:27;;;;;;;;;;;12.60;99.90;;;;;;5036957;28;19921;-69
2023/06/03 02:48:53;;;;;;;;;;;12.60;99.90;;;;;;5033644;28;19922;-69
2023/06/03 02:51:21;;;;;;;;;;;12.60;99.90;;;;;;5043086;28;20256;-69
2023/06/03 02:53:48;;;;;;;;;;;12.50;99.90;;;;;;5042720;28;19921;-69
2023/06/03 02:56:14;;;;;;;;;;;12.50;99.90;;;;;;5042645;28;19964;-70
2023/06/03 02:58:41;;;;;;;;;;;12.40;99.90;;;;;;5043212;28;19921;-69
2023/06/03 03:01:08;;;;;;;;;;;12.50;99.90;;;;;;5043003;28;19968;-69
2023/06/03 03:03:36;;;;;;;;;;;12.40;99.90;;;;;;5042804;28;19984;-69
2023/06/03 03:06:03;;;;;;;;;;;12.40;99.90;;;;;;5042243;28;19921;-69
2023/06/03 03:08:31;;;;;;;;;;;12.30;99.90;;;;;;5043065;28;19969;-69
2023/06/03 03:10:57;;;;;;;;;;;12.30;99.90;;;;;;5043069;28;19984;-69
2023/06/03 03:13:24;;;;;;;;;;;12.30;99.90;;;;;;5042990;28;19980;-69
2023/06/03 03:15:51;;;;;;;;;;;12.30;99.90;;;;;;5041881;28;20173;-69
2023/06/03 03:18:18;;;;;;;;;;;12.30;99.90;;;;;;5042857;28;19927;-69
2023/06/03 03:20:45;;;;;;;;;;;12.30;99.90;;;;;;5042753;28;19971;-69
2023/06/03 03:23:13;;;;;;;;;;;12.30;99.90;;;;;;5039591;28;19921;-69
2023/06/03 03:25:41;;;;;;;;;;;12.30;99.90;;;;;;5042066;28;19921;-69
2023/06/03 03:28:08;;;;;;;;;;;12.30;99.90;;;;;;5042747;28;19927;-69
2023/06/03 03:30:37;;;;;;;;;;;12.30;99.90;;;;;;5042749;28;19952;-69
2023/06/03 03:33:04;;;;;;;;;;;12.40;99.90;;;;;;5043002;28;20166;-69
2023/06/03 03:35:30;;;;;;;;;;;12.40;99.90;;;;;;5041789;28;20137;-69
2023/06/03 03:38:00;;;;;;;;;;;12.30;99.90;;;;;;5042517;28;19980;-69
2023/06/03 03:40:27;;;;;;;;;;;12.30;99.90;;;;;;5046023;28;19967;-70
2023/06/03 03:42:56;;;;;;;;;;;12.30;99.90;;;;;;5046055;28;20251;-69
2023/06/03 03:45:23;;;;;;;;;;;12.20;99.90;;;;;;5045192;28;20113;-70
2023/06/03 03:47:50;;;;;;;;;;;12.20;99.90;;;;;;5036815;28;19984;-69
2023/06/03 03:50:29;;;;;;;;;;;12.20;99.90;;;;;;5039391;28;19964;-69
2023/06/03 03:52:59;;;;;;;;;;;12.20;99.90;;;;;;5045638;28;19921;-69
2023/06/03 03:55:26;;;;;;;;;;;12.20;99.90;;;;;;5031706;28;19921;-69
2023/06/03 03:57:53;;;;;;;;;;;12.20;99.90;;;;;;5025998;28;19922;-70
2023/06/03 04:00:22;;;;;;;;;;;12.20;99.90;;;;;;5025965;28;19921;-69
2023/06/03 04:02:49;;;;;;;;;;;12.20;99.90;;;;;;5032477;28;19927;-69
2023/06/03 04:05:17;;;;;;;;;;;12.20;99.90;;;;;;5039498;28;19997;-69
2023/06/03 04:07:44;;;;;;;;;;;12.20;99.90;;;;;;5025820;28;19928;-69
2023/06/03 04:10:11;;;;;;;;;;;12.30;99.90;;;;;;5033277;28;19989;-69
2023/06/03 04:12:37;;;;;;;;;;;12.30;99.90;;;;;;5045848;28;19968;-70
2023/06/03 04:15:05;;;;;;;;;;;12.30;99.90;;;;;;5038604;28;19953;-69
2023/06/03 04:17:36;;;;;;;;;;;12.40;99.90;;;;;;5033712;28;19952;-69
2023/06/03 04:20:07;;;;;;;;;;;12.40;99.90;;;;;;5025988;28;19989;-69
2023/06/03 04:22:33;;;;;;;;;;;12.40;99.90;;;;;;5025674;28;19932;-69
2023/06/03 04:25:02;;;;;;;;;;;12.50;99.90;;;;;;5033839;28;19988;-69
2023/06/03 04:27:29;;;;;;;;;;;12.50;99.90;;;;;;5045036;28;19921;-70
2023/06/03 04:29:56;;;;;;;;;;;12.60;99.90;;;;;;5045307;28;20260;-70
2023/06/03 04:32:23;;;;;;;;;;;12.60;99.90;;;;;;5045549;28;19959;-69
2023/06/03 04:34:52;;;;;;;;;;;12.60;99.90;;;;;;5044348;28;19988;-69
2023/06/03 04:37:18;;;;;;;;;;;12.60;99.90;;;;;;5045327;28;19948;-69
2023/06/03 04:39:45;;;;;;;;;;;12.70;99.90;;;;;;5045292;28;19992;-69
2023/06/03 04:42:12;;;;;;;;;;;12.70;99.90;;;;;;5045065;28;19996;-69
2023/06/03 04:44:39;;;;;;;;;;;12.60;99.90;;;;;;5044461;28;19932;-69
2023/06/03 04:47:10;;;;;;;;;;;12.60;99.90;;;;;;5041426;28;19944;-70
2023/06/03 04:49:37;;;;;;;;;;;12.70;99.90;;;;;;5032485;28;19985;-69
2023/06/03 04:52:09;;;;;;;;;;;12.70;99.90;;;;;;5043098;28;19996;-69
2023/06/03 04:54:36;;;;;;;;;;;12.80;99.90;;;;;;5032895;28;20227;-69
2023/06/03 04:57:02;;;;;;;;;;;12.80;99.90;;;;;;5044390;28;19929;-69
2023/06/03 04:59:29;;;;;;;;;;;12.90;99.90;;;;;;5044897;28;20004;-69
2023/06/03 05:01:56;;;;;;;;;;;12.90;99.90;;;;;;5039765;28;19936;-69
2023/06/03 05:04:22;;;;;;;;;;;13.00;99.90;;;;;;5043433;28;19959;-69
2023/06/03 05:06:49;;;;;;;;;;;13.10;99.90;;;;;;5044492;28;19960;-69
2023/06/03 05:09:17;;;;;;;;;;;13.20;99.90;;;;;;5044399;28;19929;-69
2023/06/03 05:11:44;;;;;;;;;;;13.30;99.90;;;;;;5044278;28;19921;-69
2023/06/03 05:14:11;;;;;;;;;;;13.40;99.90;;;;;;5043853;28;19935;-69
2023/06/03 05:16:38;;;;;;;;;;;13.50;99.90;;;;;;5044241;28;19921;-69
2023/06/03 05:19:04;;;;;;;;;;;13.60;99.90;;;;;;5044360;28;20164;-69
2023/06/03 05:21:31;;;;;;;;;;;13.60;99.90;;;;;;5036373;28;20212;-69
2023/06/03 05:23:57;;;;;;;;;;;13.70;99.90;;;;;;5043900;28;19988;-69
2023/06/03 05:26:26;;;;;;;;;;;13.80;99.90;;;;;;5043651;28;19993;-69
2023/06/03 05:28:53;;;;;;;;;;;13.90;99.90;;;;;;5038413;28;19980;-69
2023/06/03 05:31:19;;;;;;;;;;;13.90;99.90;;;;;;5024463;28;19927;-68
2023/06/03 05:33:46;;;;;;;;;;;13.80;99.90;;;;;;5024125;28;19922;-69
2023/06/03 05:36:13;;;;;;;;;;;13.80;99.90;;;;;;5023326;28;20265;-68
2023/06/03 05:38:39;;;;;;;;;;;13.80;99.90;;;;;;5024401;28;20201;-68
2023/06/03 05:41:06;;;;;;;;;;;13.60;99.90;;;;;;5024155;28;19927;-69
2023/06/03 05:43:34;;;;;;;;;;;13.60;99.90;;;;;;5024322;28;19945;-68
2023/06/03 05:46:01;;;;;;;;;;;13.50;99.90;;;;;;5025752;28;19940;-68
2023/06/03 05:48:28;;;;;;;;;;;13.50;99.90;;;;;;5034389;28;19984;-69
2023/06/03 05:50:55;;;;;;;;;;;13.50;99.90;;;;;;5043688;28;19921;-69
2023/06/03 05:53:22;;;;;;;;;;;13.50;99.90;;;;;;5043798;28;19928;-69
2023/06/03 05:55:49;;;;;;;;;;;13.40;99.90;;;;;;5040918;28;19980;-68
2023/06/03 05:58:17;;;;;;;;;;;13.50;99.90;;;;;;5042855;28;20111;-69
2023/06/03 06:00:45;;;;;;;;;;;13.50;99.90;;;;;;5043268;28;19927;-68
2023/06/03 06:03:12;;;;;;;;;;;13.50;99.90;;;;;;5033755;28;19981;-68
2023/06/03 06:05:39;;;;;;;;;;;13.70;99.90;;;;;;5034360;28;19984;-69
2023/06/03 06:08:06;;;;;;;;;;;13.80;99.90;;;;;;5023630;28;19921;-69
2023/06/03 06:10:33;;;;;;;;;;;13.80;99.90;;;;;;5023729;28;19943;-68
2023/06/03 06:12:59;;;;;;;;;;;14.00;99.90;;;;;;5023532;28;19928;-69
2023/06/03 06:15:28;;;;;;;;;;;14.10;99.90;;;;;;5022885;28;20227;-68
2023/06/03 06:17:56;;;;;;;;;;;14.20;99.90;;;;;;5023440;28;19928;-69
2023/06/03 06:20:24;;;;;;;;;;;14.40;99.90;;;;;;5022508;28;19925;-69
2023/06/03 06:22:50;;;;;;;;;;;14.40;99.90;;;;;;5034567;28;19963;-68
2023/06/03 06:25:18;;;;;;;;;;;14.50;99.90;;;;;;5040574;28;19921;-68
2023/06/03 06:27:45;;;;;;;;;;;14.60;99.90;;;;;;5043201;28;19921;-69
2023/06/03 06:30:14;;;;;;;;;;;14.70;99.90;;;;;;5043163;28;20185;-69
2023/06/03 06:32:43;;;;;;;;;;;14.80;99.90;;;;;;5043373;28;20090;-69
2023/06/03 06:35:12;;;;;;;;;;;14.90;99.90;;;;;;5041475;28;19967;-68
2023/06/03 06:37:39;;;;;;;;;;;15.00;99.90;;;;;;5042718;28;19980;-68
2023/06/03 06:40:08;;;;;;;;;;;15.10;99.90;;;;;;5042793;28;19984;-68
2023/06/03 06:42:37;;;;;;;;;;;15.10;99.90;;;;;;5042861;28;19971;-68
2023/06/03 06:45:08;;;;;;;;;;;15.20;99.90;;;;;;5042389;28;20177;-69
2023/06/03 06:47:36;;;;;;;;;;;15.30;99.90;;;;;;5034626;28;19921;-69
2023/06/03 06:50:04;;;;;;;;;;;15.30;99.90;;;;;;5035084;28;20165;-68
2023/06/03 06:52:32;;;;;;;;;;;15.40;99.90;;;;;;5043047;28;19979;-71
2023/06/03 06:54:59;;;;;;;;;;;15.40;99.90;;;;;;5042070;28;20209;-69
2023/06/03 06:57:28;;;;;;;;;;;15.50;99.90;;;;;;5042928;28;19921;-69
2023/06/03 06:59:54;;;;;;;;;;;15.60;99.90;;;;;;5043054;28;19921;-69
2023/06/03 07:02:21;;;;;;;;;;;15.60;99.90;;;;;;5042064;28;19988;-69
2023/06/03 07:04:49;;;;;;;;;;;15.70;99.90;;;;;;5041854;28;20269;-68
2023/06/03 07:07:15;;;;;;;;;;;15.70;99.90;;;;;;5026421;28;19928;-67
2023/06/03 07:09:44;;;;;;;;;;;15.80;99.90;;;;;;5023196;28;20174;-67
2023/06/03 07:12:11;;;;;;;;;;;15.80;99.90;;;;;;5028148;28;19988;-67
2023/06/03 07:14:38;;;;;;;;;;;15.90;99.90;;;;;;5046061;28;19921;-68
2023/06/03 07:17:06;;;;;;;;;;;15.90;99.90;;;;;;5046534;28;19921;-68
2023/06/03 07:19:35;;;;;;;;;;;16.00;99.90;;;;;;5046230;28;19987;-67
2023/06/03 07:22:01;;;;;;;;;;;16.10;99.90;;;;;;5046375;28;19967;-69
2023/06/03 07:24:28;;;;;;;;;;;16.10;99.90;;;;;;5045599;28;19963;-67
2023/06/03 07:26:56;;;;;;;;;;;16.10;99.90;;;;;;5045767;28;19927;-67
2023/06/03 07:29:23;;;;;;;;;;;16.20;99.90;;;;;;5046065;28;19921;-67
2023/06/03 07:31:49;;;;;;;;;;;16.20;99.90;;;;;;5045991;28;20000;-67
2023/06/03 07:34:20;;;;;;;;;;;16.20;99.90;;;;;;5045390;28;19943;-69
2023/06/03 07:36:50;;;;;;;;;;;16.30;99.90;;;;;;5045789;28;19959;-67
2023/06/03 07:39:19;;;;;;;;;;;16.30;99.90;;;;;;5045803;28;20090;-68
2023/06/03 07:41:50;;;;;;;;;;;16.40;99.90;;;;;;5045890;28;19995;-68
2023/06/03 07:44:20;;;;;;;;;;;16.40;99.90;;;;;;5045208;28;19928;-70
2023/06/03 07:46:49;;;;;;;;;;;16.50;99.90;;;;;;5037605;28;19945;-69
2023/06/03 07:49:17;;;;;;;;;;;16.60;99.90;;;;;;5037870;28;19921;-70
2023/06/03 07:51:45;;;;;;;;;;;16.70;99.90;;;;;;5045488;28;19993;-72
2023/06/03 07:54:11;;;;;;;;;;;16.80;99.90;;;;;;5044493;28;19967;-70
2023/06/03 07:56:38;;;;;;;;;;;16.90;99.90;;;;;;5045706;28;19921;-71
2023/06/03 07:59:06;;;;;;;;;;;16.90;99.90;;;;;;5045538;28;19921;-70
2023/06/03 08:01:35;;;;;;;;;;;17.00;99.90;;;;;;5045046;28;19925;-69
2023/06/03 08:04:04;;;;;;;;;;;17.10;99.90;;;;;;5044824;28;19967;-70
2023/06/03 08:06:32;;;;;;;;;;;17.20;99.90;;;;;;5030393;28;19921;-70
2023/06/03 08:09:00;;;;;;;;;;;17.30;99.90;;;;;;5025146;28;19928;-70
2023/06/03 08:11:26;;;;;;;;;;;17.40;99.90;;;;;;5025347;28;20235;-70
2023/06/03 08:13:54;;;;;;;;;;;17.40;99.90;;;;;;5024930;28;20121;-70
2023/06/03 08:16:21;;;;;;;;;;;17.50;99.90;;;;;;5025191;28;19929;-70
2023/06/03 08:18:50;;;;;;;;;;;17.50;99.90;;;;;;5025499;28;20094;-70
2023/06/03 08:21:20;;;;;;;;;;;17.70;99.90;;;;;;5041049;28;19980;-69
2023/06/03 08:23:46;;;;;;;;;;;17.70;99.90;;;;;;5044893;28;19997;-70
2023/06/03 08:26:13;;;;;;;;;;;17.80;99.90;;;;;;5044121;28;20224;-70
2023/06/03 08:28:39;;;;;;;;;;;17.90;99.90;;;;;;5045049;28;19944;-70
2023/06/03 08:31:07;;;;;;;;;;;18.00;99.90;;;;;;5039826;28;19928;-69
2023/06/03 08:33:37;;;;;;;;;;;18.10;99.90;;;;;;5025073;28;19921;-71
2023/06/03 08:36:05;;;;;;;;;;;18.20;99.90;;;;;;5024117;28;19966;-70
2023/06/03 08:38:32;;;;;;;;;;;18.20;99.90;;;;;;5030011;28;19921;-70
2023/06/03 08:40:59;;;;;;;;;;;18.30;99.90;;;;;;5025089;28;19921;-70
2023/06/03 08:43:28;;;;;;;;;;;18.30;99.90;;;;;;5025069;28;19959;-72
2023/06/03 08:46:01;;;;;;;;;;;18.40;99.90;;;;;;5028880;28;20003;-70
2023/06/03 08:48:32;;;;;;;;;;;18.40;99.90;;;;;;5037748;28;19984;-69
2023/06/03 08:51:04;;;;;;;;;;;18.40;99.90;;;;;;5030076;28;20004;-69
2023/06/03 08:53:34;;;;;;;;;;;18.60;99.90;;;;;;5024643;28;19990;-69
2023/06/03 08:56:02;;;;;;;;;;;18.60;99.90;;;;;;5027665;28;19921;-71
2023/06/03 08:58:32;;;;;;;;;;;18.60;99.90;;;;;;5044531;28;19988;-70
2023/06/03 09:01:01;;;;;;;;;;;18.80;99.90;;;;;;5044728;28;19921;-71
2023/06/03 09:03:32;;;;;;;;;;;18.90;99.90;;;;;;5042038;28;19921;-70
2023/06/03 09:05:59;;;;;;;;;;;18.90;99.90;;;;;;5041926;28;19948;-73
2023/06/03 09:08:27;;;;;;;;;;;19.00;99.90;;;;;;5042623;28;19927;-70
2023/06/03 09:10:56;;;;;;;;;;;19.10;99.90;;;;;;5044578;28;19984;-71
2023/06/03 09:13:23;;;;;;;;;;;19.00;99.90;;;;;;5031618;28;19921;-70
2023/06/03 09:15:51;;;;;;;;;;;19.10;99.90;;;;;;5035414;28;20231;-71
2023/06/03 09:18:18;;;;;;;;;;;19.20;99.90;;;;;;5028423;28;20354;-70
2023/06/03 09:20:45;;;;;;;;;;;19.30;99.90;;;;;;5032482;28;19992;-69
2023/06/03 09:23:12;;;;;;;;;;;19.30;99.90;;;;;;5039950;28;19920;-70
2023/06/03 09:25:39;;;;;;;;;;;19.40;99.90;;;;;;5022791;28;19928;-69
2023/06/03 09:28:07;;;;;;;;;;;19.50;99.90;;;;;;5022782;28;19980;-69
2023/06/03 09:30:35;;;;;;;;;;;19.60;99.90;;;;;;5023619;28;20232;-69
2023/06/03 09:33:01;;;;;;;;;;;19.60;99.90;;;;;;5030076;28;19921;-69
2023/06/03 09:35:28;;;;;;;;;;;19.70;99.90;;;;;;5029054;28;19959;-69
2023/06/03 09:37:59;;;;;;;;;;;19.80;99.90;;;;;;5039733;28;19985;-71
2023/06/03 09:40:27;;;;;;;;;;;19.90;99.90;;;;;;5041963;28;19928;-69
2023/06/03 09:42:53;;;;;;;;;;;20.00;99.90;;;;;;5051352;28;19988;-69
2023/06/03 09:45:30;;;;;;;;;;;20.00;99.90;;;;;;5036512;28;20025;-68
2023/06/03 09:47:57;;;;;;;;;;;20.10;99.90;;;;;;5037382;28;20086;-69
2023/06/03 09:50:24;;;;;;;;;;;20.20;99.90;;;;;;5032453;28;19955;-69
2023/06/03 09:52:51;;;;;;;;;;;20.10;99.90;;;;;;5035415;28;20163;-68
2023/06/03 09:55:19;;;;;;;;;;;20.10;99.90;;;;;;5032701;28;19928;-69
2023/06/03 09:58:01;;;;;;;;;;;20.20;99.90;;;;;;5032021;28;19944;-68
2023/06/03 10:00:27;;;;;;;;;;;20.20;99.90;;;;;;5036042;28;19955;-69
2023/06/03 10:03:05;;;;;;;;;;;20.40;99.90;;;;;;5056405;28;19984;-70
2023/06/03 10:05:34;;;;;;;;;;;20.40;99.90;;;;;;5041453;28;21022;-69
2023/06/03 10:08:02;;;;;;;;;;;20.50;99.90;;;;;;5041465;28;19921;-67
2023/06/03 10:10:29;;;;;;;;;;;20.60;99.90;;;;;;5032956;28;20156;-67
2023/06/03 10:12:55;;;;;;;;;;;20.80;99.90;;;;;;5023092;28;20112;-67
2023/06/03 10:15:35;;;;;;;;;;;20.90;99.90;;;;;;5023214;28;20185;-68
2023/06/03 10:18:03;;;;;;;;;;;20.90;99.90;;;;;;5036064;28;19925;-71
2023/06/03 10:20:31;;;;;;;;;;;20.80;99.90;;;;;;5044727;28;19983;-65
2023/06/03 10:22:57;;;;;;;;;;;20.90;99.90;;;;;;5051692;28;19921;-66
2023/06/03 10:25:24;;;;;;;;;;;21.10;99.90;;;;;;5042304;28;20152;-65
2023/06/03 10:27:51;;;;;;;;;;;21.30;99.90;;;;;;5022910;28;19921;-66
2023/06/03 10:30:18;;;;;;;;;;;21.40;99.90;;;;;;5023102;28;19985;-65
2023/06/03 10:32:45;;;;;;;;;;;21.50;99.90;;;;;;5033112;28;19988;-65
2023/06/03 10:35:14;;;;;;;;;;;21.50;99.90;;;;;;5041637;28;19988;-66
2023/06/03 10:37:41;;;;;;;;;;;21.60;99.90;;;;;;5042663;28;20209;-70
2023/06/03 10:40:08;;;;;;;;;;;21.70;99.90;;;;;;5042905;28;19927;-68
2023/06/03 10:42:35;;;;;;;;;;;21.70;99.90;;;;;;5041503;28;20176;-68
2023/06/03 10:45:04;;;;;;;;;;;21.90;99.90;;;;;;5045550;28;19921;-67
2023/06/03 10:47:32;;;;;;;;;;;22.10;99.90;;;;;;5031805;28;19957;-67
2023/06/03 10:50:02;;;;;;;;;;;22.30;99.90;;;;;;5038313;28;20252;-68
2023/06/03 10:52:37;;;;;;;;;;;22.40;99.90;;;;;;5039082;28;19921;-67
2023/06/03 10:55:10;;;;;;;;;;;22.50;99.90;;;;;;5027175;28;19984;-69
2023/06/03 10:57:39;;;;;;;;;;;22.70;99.90;;;;;;5058361;28;19949;-65
2023/06/03 11:00:06;;;;;;;;;;;22.70;99.90;;;;;;5059984;28;19984;-63
2023/06/03 11:02:47;;;;;;;;;;;22.80;99.90;;;;;;5038988;28;19988;-65
2023/06/03 11:05:24;;;;;;;;;;;22.80;99.90;;;;;;5043464;28;19984;-68
2023/06/03 11:07:53;;;;;;;;;;;22.80;99.90;;;;;;5046615;28;19992;-64
2023/06/03 11:10:35;;;;;;;;;;;22.80;99.90;;;;;;5035770;28;19968;-66
2023/06/03 11:13:02;;;;;;;;;;;23.00;99.90;;;;;;5045898;28;19952;-64
2023/06/03 11:15:57;;;;;;;;;;;23.00;99.90;;;;;;5039534;28;19933;-65
2023/06/03 11:18:24;;;;;;;;;;;23.10;99.90;;;;;;5039615;28;19968;-65
2023/06/03 11:20:50;;;;;;;;;;;23.00;99.90;;;;;;5038916;28;19999;-65
2023/06/03 11:23:32;;;;;;;;;;;23.10;99.90;;;;;;5046025;28;19972;-65
2023/06/03 11:26:20;;;;;;;;;;;23.00;99.90;;;;;;5044084;28;19956;-65
2023/06/03 11:28:46;;;;;;;;;;;23.10;99.90;;;;;;5046623;28;19964;-66
2023/06/03 11:31:18;;;;;;;;;;;23.00;99.90;;;;;;5045194;28;19921;-65
2023/06/03 11:34:18;;;;;;;;;;;23.10;99.90;;;;;;5046192;28;19937;-66
2023/06/03 11:36:48;;;;;;;;;;;23.30;99.90;;;;;;5045682;28;19964;-66
2023/06/03 11:39:15;;;;;;;;;;;23.50;99.90;;;;;;5042920;28;19921;-65
2023/06/03 11:42:02;;;;;;;;;;;23.80;99.90;;;;;;5044527;28;20209;-65
2023/06/03 11:44:29;;;;;;;;;;;23.80;99.90;;;;;;5025176;28;19921;-65
2023/06/03 11:46:56;;;;;;;;;;;23.80;99.90;;;;;;5031529;28;19921;-65
2023/06/03 11:49:22;;;;;;;;;;;23.80;99.90;;;;;;5045832;28;19921;-65
2023/06/03 11:51:51;;;;;;;;;;;23.90;99.90;;;;;;5045617;28;20208;-65
2023/06/03 11:54:20;;;;;;;;;;;24.00;99.90;;;;;;5044864;28;19996;-66
2023/06/03 11:56:46;;;;;;;;;;;24.00;99.90;;;;;;5044798;28;19921;-65
2023/06/03 11:59:16;;;;;;;;;;;24.20;99.90;;;;;;5044590;28;19927;-65
2023/06/03 12:01:54;;;;;;;;;;;24.30;99.90;;;;;;5040430;28;19985;-65
2023/06/03 12:04:21;;;;;;;;;;;24.30;99.90;;;;;;5024837;28;20169;-65
2023/06/03 12:06:47;;;;;;;;;;;24.50;99.90;;;;;;5025851;28;19921;-64
2023/06/03 12:09:16;;;;;;;;;;;24.50;99.90;;;;;;5024483;28;19957;-66
2023/06/03 12:11:43;;;;;;;;;;;24.50;99.90;;;;;;5038300;28;20260;-66
2023/06/03 12:14:10;;;;;;;;;;;24.80;99.90;;;;;;5064617;28;20293;-65
2023/06/03 12:16:38;;;;;;;;;;;25.00;99.90;;;;;;5057054;28;20261;-65
2023/06/03 12:19:06;;;;;;;;;;;25.20;99.90;;;;;;5045210;28;19921;-66
2023/06/03 12:21:33;;;;;;;;;;;25.20;99.90;;;;;;5045492;28;20389;-65
2023/06/03 12:24:00;;;;;;;;;;;25.10;99.90;;;;;;5044939;28;19991;-65
2023/06/03 12:26:27;;;;;;;;;;;24.90;99.90;;;;;;5044995;28;19928;-64
2023/06/03 12:29:04;;;;;;;;;;;24.90;99.90;;;;;;5045013;28;20158;-65
2023/06/03 12:31:31;;;;;;;;;;;24.80;99.90;;;;;;5045032;28;19921;-65
2023/06/03 12:34:00;;;;;;;;;;;24.80;99.90;;;;;;5044835;28;19957;-66
2023/06/03 12:36:42;;;;;;;;;;;24.60;99.60;;;;;;5044657;28;19968;-65
2023/06/03 12:39:09;;;;;;;;;;;24.60;99.90;;;;;;5044694;28;19921;-65
2023/06/03 12:41:35;;;;;;;;;;;24.80;99.80;;;;;;5045061;28;19921;-65
2023/06/03 12:44:02;;;;;;;;;;;24.90;98.80;;;;;;5038597;28;19928;-65
2023/06/03 12:46:30;;;;;;;;;;;24.80;98.50;;;;;;5024639;28;19931;-65
2023/06/03 12:48:58;;;;;;;;;;;24.90;99.30;;;;;;5027190;28;19921;-65
2023/06/03 12:51:28;;;;;;;;;;;25.20;99.90;;;;;;5044921;28;20135;-64
2023/06/03 12:53:56;;;;;;;;;;;25.30;98.00;;;;;;5044221;28;19925;-66
2023/06/03 12:56:24;;;;;;;;;;;25.10;97.90;;;;;;5042162;28;19960;-65
2023/06/03 12:58:51;;;;;;;;;;;24.90;97.00;;;;;;5032764;28;19925;-64
2023/06/03 13:01:18;;;;;;;;;;;24.80;97.20;;;;;;5031629;28;19921;-65
2023/06/03 13:03:45;;;;;;;;;;;24.80;98.50;;;;;;5036348;28;19921;-64
2023/06/03 13:06:11;;;;;;;;;;;24.60;97.60;;;;;;5039027;28;20387;-68
2023/06/03 13:08:39;;;;;;;;;;;24.30;98.20;;;;;;5038130;28;19993;-64
2023/06/03 13:11:06;;;;;;;;;;;24.10;98.20;;;;;;5038899;28;19935;-65
2023/06/03 13:13:33;;;;;;;;;;;23.80;98.00;;;;;;5035591;28;19921;-64
2023/06/03 13:16:00;;;;;;;;;;;23.50;98.60;;;;;;5036971;28;19929;-65
2023/06/03 13:18:27;;;;;;;;;;;23.40;98.40;;;;;;5030823;28;20232;-64
2023/06/03 13:20:54;;;;;;;;;;;23.30;98.30;;;;;;5041468;28;19935;-65
2023/06/03 13:23:20;;;;;;;;;;;23.20;98.40;;;;;;5027069;28;19935;-64
2023/06/03 13:25:48;;;;;;;;;;;23.20;99.00;;;;;;5026910;28;19992;-64
2023/06/03 13:28:16;;;;;;;;;;;23.20;98.50;;;;;;5037854;28;19921;-65
2023/06/03 13:30:42;;;;;;;;;;;23.20;99.30;;;;;;5027719;28;19964;-64
2023/06/03 13:33:09;;;;;;;;;;;23.40;99.30;;;;;;5040590;28;19992;-64
2023/06/03 13:35:36;;;;;;;;;;;23.80;98.20;;;;;;5033863;28;19921;-65
2023/06/03 13:38:02;;;;;;;;;;;24.10;98.10;;;;;;5031355;28;20171;-66
2023/06/03 13:40:31;;;;;;;;;;;24.20;97.10;;;;;;5033347;28;20159;-64
2023/06/03 13:43:01;;;;;;;;;;;24.10;98.30;;;;;;5042833;28;20104;-64
2023/06/03 13:45:28;;;;;;;;;;;24.10;98.30;;;;;;5031841;28;20304;-64
2023/06/03 13:47:55;;;;;;;;;;;23.80;97.80;;;;;;5025702;28;19956;-65
2023/06/03 13:50:22;;;;;;;;;;;23.70;97.80;;;;;;5038321;28;19928;-64
2023/06/03 13:52:48;;;;;;;;;;;23.50;97.30;;;;;;5037160;28;19960;-65
2023/06/03 13:55:15;;;;;;;;;;;23.60;98.30;;;;;;5033318;28;19992;-64
2023/06/03 13:57:42;;;;;;;;;;;24.00;97.70;;;;;;5043305;28;20232;-64
2023/06/03 14:00:10;;;;;;;;;;;24.40;97.90;;;;;;5043275;28;20213;-64
2023/06/03 14:02:37;;;;;;;;;;;24.80;97.70;;;;;;5043545;28;19921;-65
2023/06/03 14:05:03;;;;;;;;;;;25.30;96.10;;;;;;5042498;28;19987;-66
2023/06/03 14:07:30;;;;;;;;;;;25.70;96.30;;;;;;5043212;28;19921;-64
2023/06/03 14:09:57;;;;;;;;;;;26.10;95.60;;;;;;5043412;28;19971;-64
2023/06/03 14:12:24;;;;;;;;;;;26.10;95.60;;;;;;5043036;28;19921;-64
2023/06/03 14:14:50;;;;;;;;;;;25.90;94.80;;;;;;5042537;28;19928;-65
2023/06/03 14:17:22;;;;;;;;;;;25.90;95.10;;;;;;5034772;28;20228;-64
2023/06/03 14:19:48;;;;;;;;;;;25.90;94.80;;;;;;5026261;28;19963;-65
2023/06/03 14:22:15;;;;;;;;;;;25.50;94.90;;;;;;5022951;28;19989;-64